Terminal Aerodrome Forecast
Issued by NWS

Home | Current Version | Previous Version | Text Only | Print | Product List | Glossary On
Versions: 1 2 3 4 5 6 7 8 9 10 11 12
000
FTUS45 KRIW 290500
TAFLND
TAF
KLND 290527Z 2906/3006 29007KT P6SM SCT110
     FM291500 VRB05KT P6SM FEW120
     FM292100 VRB10G15KT P6SM VCTS SCT080CB BKN120
     FM300300 25008KT P6SM SCT120=

USA.gov is the U.S. government's official web portal to all federal, state and local government web resources and services.